createdAt,value
2023-05-05T00:00:12.169Z,10.02
2023-05-05T00:02:42.187Z,9.97
2023-05-05T00:05:11.356Z,9.89
2023-05-05T00:07:40.172Z,9.83
2023-05-05T00:10:11.684Z,9.78
2023-05-05T00:12:40.394Z,9.58
2023-05-05T00:15:10.372Z,9.77
2023-05-05T00:17:39.125Z,9.99
2023-05-05T00:20:10.405Z,10.08
2023-05-05T00:22:39.168Z,10.08
2023-05-05T00:25:10.898Z,10.05
2023-05-05T00:27:40.850Z,10.05
2023-05-05T00:30:10.739Z,9.63
2023-05-05T00:32:39.626Z,9.77
2023-05-05T00:35:09.696Z,9.81
2023-05-05T00:37:38.499Z,9.80
2023-05-05T00:40:11.148Z,9.76
2023-05-05T00:42:41.784Z,9.61
2023-05-05T00:45:12.305Z,9.46
2023-05-05T00:47:44.015Z,9.25
2023-05-05T00:50:19.440Z,9.18
2023-05-05T00:52:48.279Z,9.33
2023-05-05T00:55:18.979Z,9.17
2023-05-05T00:57:48.745Z,8.98
2023-05-05T01:00:18.050Z,8.97
2023-05-05T01:02:46.993Z,9.23
2023-05-05T01:05:17.959Z,9.44
2023-05-05T01:08:20.347Z,9.54
2023-05-05T01:11:02.151Z,9.47
2023-05-05T01:13:44.187Z,9.48
2023-05-05T01:16:20.900Z,9.49
2023-05-05T01:19:23.768Z,9.57
2023-05-05T01:22:01.486Z,9.43
2023-05-05T01:24:58.156Z,9.45
2023-05-05T01:27:51.256Z,9.40
2023-05-05T01:30:51.313Z,9.16
2023-05-05T01:33:28.811Z,9.12
2023-05-05T01:36:05.512Z,9.08
2023-05-05T01:38:41.879Z,8.80
2023-05-05T01:41:18.365Z,9.01
2023-05-05T01:43:51.833Z,9.06
2023-05-05T01:46:24.786Z,9.12
2023-05-05T01:48:58.378Z,9.10
2023-05-05T01:51:29.174Z,9.20
2023-05-05T01:54:02.774Z,9.25
2023-05-05T01:56:33.900Z,9.04
2023-05-05T01:59:06.763Z,8.96
2023-05-05T02:01:40.977Z,8.91
2023-05-05T02:04:14.542Z,9.01
2023-05-05T02:06:47.625Z,9.04
2023-05-05T02:09:18.311Z,9.00
2023-05-05T02:11:47.250Z,9.09
2023-05-05T02:14:20.067Z,8.96
2023-05-05T02:16:49.953Z,8.98
2023-05-05T02:19:25.610Z,8.94
2023-05-05T02:21:54.438Z,8.95
2023-05-05T02:24:23.278Z,8.91
2023-05-05T02:26:56.112Z,8.69
2023-05-05T02:29:34.002Z,8.58
2023-05-05T02:32:10.608Z,8.49
2023-05-05T02:34:44.054Z,8.75
2023-05-05T02:37:24.679Z,8.85
2023-05-05T02:40:04.704Z,8.75
2023-05-05T02:42:41.199Z,8.61
2023-05-05T02:45:18.543Z,8.70
2023-05-05T02:47:50.634Z,8.62
2023-05-05T02:50:20.865Z,8.69
2023-05-05T02:52:58.675Z,8.76
2023-05-05T02:55:34.678Z,8.77
2023-05-05T02:58:08.828Z,8.82
2023-05-05T03:00:54.649Z,8.93
2023-05-05T03:03:39.930Z,8.97
2023-05-05T03:06:19.643Z,8.94
2023-05-05T03:08:57.620Z,8.99
2023-05-05T03:11:37.051Z,8.94
2023-05-05T03:14:13.153Z,8.76
2023-05-05T03:16:45.850Z,8.83
2023-05-05T03:19:18.692Z,8.81
2023-05-05T03:21:52.524Z,8.93
2023-05-05T03:24:22.781Z,8.99
2023-05-05T03:26:59.893Z,9.01
2023-05-05T03:29:34.810Z,9.01
2023-05-05T03:32:06.018Z,9.01
2023-05-05T03:34:37.439Z,9.01
2023-05-05T03:37:08.779Z,9.05
2023-05-05T03:39:38.830Z,9.10
2023-05-05T03:42:08.894Z,9.09
2023-05-05T03:44:38.199Z,9.00
2023-05-05T03:47:07.769Z,8.99
2023-05-05T03:49:39.089Z,8.98
2023-05-05T03:52:09.686Z,8.97
2023-05-05T03:54:40.784Z,8.99
2023-05-05T03:57:09.503Z,8.93
2023-05-05T03:59:38.423Z,9.00
2023-05-05T04:02:07.680Z,8.86
2023-05-05T04:04:36.954Z,8.59
2023-05-05T04:07:06.450Z,8.70
2023-05-05T04:09:37.381Z,8.55
2023-05-05T04:12:07.699Z,8.69
2023-05-05T04:14:37.024Z,8.75
2023-05-05T04:17:08.262Z,8.72
2023-05-05T04:19:37.621Z,8.74
2023-05-05T04:22:07.673Z,8.69
2023-05-05T04:24:38.141Z,8.53
2023-05-05T04:27:07.406Z,8.61
2023-05-05T04:29:36.947Z,8.38
2023-05-05T04:32:06.730Z,8.52
2023-05-05T04:34:35.779Z,8.38
2023-05-05T04:37:04.821Z,8.57
2023-05-05T04:39:33.958Z,8.62
2023-05-05T04:42:05.013Z,8.69
2023-05-05T04:44:34.726Z,8.82
2023-05-05T04:47:04.587Z,8.90
2023-05-05T04:49:34.158Z,8.81
2023-05-05T04:52:03.551Z,8.94
2023-05-05T04:54:32.450Z,9.04
2023-05-05T04:57:41.917Z,9.05
2023-05-05T05:01:13.930Z,9.16
2023-05-05T05:03:42.776Z,9.20
2023-05-05T05:06:11.541Z,9.28
2023-05-05T05:08:40.287Z,9.32
2023-05-05T05:11:09.155Z,9.35
2023-05-05T05:13:37.864Z,9.39
2023-05-05T05:16:09.730Z,9.43
2023-05-05T05:18:38.488Z,9.46
2023-05-05T05:21:07.285Z,9.48
2023-05-05T05:23:36.199Z,9.50
2023-05-05T05:26:05.406Z,9.57
2023-05-05T05:28:34.896Z,9.57
2023-05-05T05:31:04.906Z,9.57
2023-05-05T05:33:35.624Z,9.62
2023-05-05T05:36:04.617Z,9.64
2023-05-05T05:38:33.420Z,9.72
2023-05-05T05:41:08.428Z,9.78
2023-05-05T05:43:39.276Z,9.85
2023-05-05T05:46:09.293Z,9.89
2023-05-05T05:48:41.547Z,9.98
2023-05-05T05:51:10.414Z,10.01
2023-05-05T05:53:40.070Z,10.09
2023-05-05T05:56:11.196Z,10.12
2023-05-05T05:58:40.643Z,10.16
2023-05-05T06:01:09.786Z,10.13
2023-05-05T06:03:38.652Z,10.23
2023-05-05T06:06:09.867Z,10.32
2023-05-05T06:08:38.870Z,10.42
2023-05-05T06:11:09.084Z,10.56
2023-05-05T06:13:37.943Z,10.70
2023-05-05T06:16:08.873Z,10.81
2023-05-05T06:18:39.111Z,10.96
2023-05-05T06:21:09.265Z,11.11
2023-05-05T06:23:38.089Z,11.21
2023-05-05T06:26:09.261Z,11.30
2023-05-05T06:28:37.969Z,11.35
2023-05-05T06:31:06.832Z,11.39
2023-05-05T06:33:35.562Z,11.47
2023-05-05T06:36:04.448Z,11.60
2023-05-05T06:38:34.509Z,11.73
2023-05-05T06:41:03.435Z,11.87
2023-05-05T06:43:32.348Z,12.00
2023-05-05T06:46:02.981Z,12.17
2023-05-05T06:48:31.684Z,12.28
2023-05-05T06:51:00.361Z,12.42
2023-05-05T06:53:29.060Z,12.54
2023-05-05T06:55:59.096Z,12.72
2023-05-05T06:58:27.797Z,12.84
2023-05-05T07:00:56.530Z,12.91
2023-05-05T07:03:25.336Z,13.02
2023-05-05T07:05:55.065Z,13.12
2023-05-05T07:08:23.803Z,13.15
2023-05-05T07:10:52.512Z,13.23
2023-05-05T07:13:22.626Z,13.27
2023-05-05T07:15:51.529Z,13.35
2023-05-05T07:18:20.601Z,13.44
2023-05-05T07:20:49.934Z,13.56
2023-05-05T07:23:18.611Z,13.68
2023-05-05T07:25:47.370Z,13.87
2023-05-05T07:28:16.451Z,14.04
2023-05-05T07:30:46.532Z,14.14
2023-05-05T07:33:15.927Z,14.27
2023-05-05T07:35:44.580Z,14.35
2023-05-05T07:38:13.362Z,14.44
2023-05-05T07:40:42.011Z,14.57
2023-05-05T07:43:10.773Z,14.72
2023-05-05T07:45:39.443Z,14.84
2023-05-05T07:48:09.636Z,14.94
2023-05-05T07:50:38.422Z,15.07
2023-05-05T07:53:14.405Z,15.22
2023-05-05T07:55:43.691Z,15.34
2023-05-05T07:58:12.380Z,15.46
2023-05-05T08:00:41.494Z,15.62
2023-05-05T08:03:12.289Z,15.68
2023-05-05T08:05:41.413Z,15.72
2023-05-05T08:08:10.275Z,15.85
2023-05-05T08:10:39.027Z,15.90
2023-05-05T08:13:07.782Z,16.03
2023-05-05T08:15:36.501Z,16.14
2023-05-05T08:18:05.385Z,16.18
2023-05-05T08:20:35.559Z,16.28
2023-05-05T08:23:04.377Z,16.35
2023-05-05T08:25:33.017Z,16.46
2023-05-05T08:28:01.772Z,16.56
2023-05-05T08:30:31.097Z,16.59
2023-05-05T08:33:00.655Z,16.60
2023-05-05T08:35:29.381Z,16.71
2023-05-05T08:37:59.475Z,16.78
2023-05-05T08:40:34.971Z,16.96
2023-05-05T08:43:04.451Z,17.14
2023-05-05T08:45:34.009Z,17.16
2023-05-05T08:48:05.494Z,17.25
2023-05-05T08:50:34.854Z,17.47
2023-05-05T08:53:16.930Z,17.55
2023-05-05T08:55:52.712Z,17.63
2023-05-05T08:58:24.087Z,17.86
2023-05-05T09:00:55.332Z,18.01
2023-05-05T09:03:25.280Z,18.20
2023-05-05T09:05:54.763Z,18.16
2023-05-05T09:08:26.024Z,18.17
2023-05-05T09:10:56.373Z,18.28
2023-05-05T09:13:25.260Z,18.40
2023-05-05T09:15:53.936Z,18.63
2023-05-05T09:18:22.641Z,18.71
2023-05-05T09:20:51.527Z,18.90
2023-05-05T09:23:21.992Z,19.00
2023-05-05T09:26:06.084Z,19.25
2023-05-05T09:28:35.877Z,19.54
2023-05-05T09:31:16.289Z,19.65
2023-05-05T09:33:45.760Z,19.81
2023-05-05T09:36:14.499Z,20.02
2023-05-05T09:38:43.214Z,20.27
2023-05-05T09:41:13.313Z,20.53
2023-05-05T09:43:53.033Z,20.83
2023-05-05T09:46:21.906Z,21.05
2023-05-05T09:48:50.599Z,21.11
2023-05-05T09:51:31.929Z,21.24
2023-05-05T09:54:00.758Z,21.55
2023-05-05T09:56:40.994Z,21.68
2023-05-05T09:59:10.482Z,21.83
2023-05-05T10:01:43.341Z,21.94
2023-05-05T10:04:25.968Z,22.09
2023-05-05T10:06:55.741Z,22.29
2023-05-05T10:09:24.778Z,22.49
2023-05-05T10:11:59.052Z,22.71
2023-05-05T10:14:29.002Z,22.68
2023-05-05T10:16:58.134Z,22.57
2023-05-05T10:19:29.055Z,22.69
2023-05-05T10:22:04.908Z,22.83
2023-05-05T10:24:41.042Z,22.98
2023-05-05T10:27:20.945Z,23.18
2023-05-05T10:29:56.218Z,23.32
2023-05-05T10:35:08.860Z,23.49
2023-05-05T10:37:39.637Z,23.51
2023-05-05T10:40:11.220Z,23.70
2023-05-05T10:42:42.000Z,23.91
2023-05-05T10:45:11.543Z,24.26
2023-05-05T10:47:41.567Z,24.38
2023-05-05T10:50:22.557Z,24.42
2023-05-05T10:53:09.259Z,24.44
2023-05-05T10:55:49.814Z,24.44
2023-05-05T11:01:12.315Z,24.51
2023-05-05T11:03:41.098Z,24.61
2023-05-05T11:06:14.013Z,24.80
2023-05-05T11:08:45.684Z,24.95
2023-05-05T11:11:14.901Z,24.96
2023-05-05T11:13:43.588Z,25.09
2023-05-05T11:16:47.898Z,25.08
2023-05-05T11:19:53.501Z,24.92
2023-05-05T11:22:22.214Z,24.94
2023-05-05T11:24:50.879Z,25.09
2023-05-05T11:27:19.611Z,25.00
2023-05-05T11:30:09.376Z,25.24
2023-05-05T11:32:39.893Z,24.99
2023-05-05T11:35:09.436Z,25.28
2023-05-05T11:37:39.657Z,25.83
2023-05-05T11:40:22.166Z,26.10
2023-05-05T11:42:51.148Z,26.24
2023-05-05T11:45:24.597Z,26.42
2023-05-05T11:48:27.150Z,26.71
2023-05-05T11:50:56.285Z,26.81
2023-05-05T11:53:25.150Z,27.03
2023-05-05T11:56:08.621Z,27.17
2023-05-05T11:58:37.429Z,26.92
2023-05-05T12:01:09.806Z,26.80
2023-05-05T12:03:40.736Z,26.62
2023-05-05T12:06:10.570Z,26.88
2023-05-05T12:08:40.387Z,27.05
2023-05-05T12:11:11.686Z,27.00
2023-05-05T12:13:41.715Z,27.18
2023-05-05T12:16:11.162Z,27.29
2023-05-05T12:18:42.891Z,27.58
2023-05-05T12:21:18.763Z,27.89
2023-05-05T12:23:48.106Z,27.79
2023-05-05T12:26:34.720Z,27.91
2023-05-05T12:29:03.728Z,27.85
2023-05-05T12:31:37.095Z,27.36
2023-05-05T12:34:09.226Z,27.45
2023-05-05T12:36:38.959Z,27.55
2023-05-05T12:39:07.686Z,27.51
2023-05-05T12:41:36.754Z,27.77
2023-05-05T12:44:05.730Z,27.97
2023-05-05T12:46:46.725Z,28.15
2023-05-05T12:49:17.791Z,27.70
2023-05-05T12:51:56.205Z,27.34
2023-05-05T12:54:29.553Z,27.42
2023-05-05T12:56:58.858Z,27.35
2023-05-05T12:59:31.834Z,27.16
2023-05-05T13:02:02.451Z,26.81
2023-05-05T13:04:32.762Z,27.32
2023-05-05T13:07:13.181Z,27.18
2023-05-05T13:09:42.461Z,27.58
2023-05-05T13:12:12.533Z,27.64
2023-05-05T13:14:41.921Z,27.37
2023-05-05T13:17:15.301Z,27.10
2023-05-05T13:19:47.161Z,26.88
2023-05-05T13:22:16.253Z,26.59
2023-05-05T13:24:52.431Z,25.89
2023-05-05T13:27:22.848Z,26.01
2023-05-05T13:29:52.114Z,25.77
2023-05-05T13:32:21.069Z,25.57
2023-05-05T13:34:51.641Z,25.32
2023-05-05T13:37:22.177Z,24.85
2023-05-05T13:39:52.027Z,24.72
2023-05-05T13:42:21.115Z,24.68
2023-05-05T13:44:53.764Z,24.66
2023-05-05T13:47:23.398Z,24.72
2023-05-05T13:49:54.841Z,24.53
2023-05-05T13:52:23.642Z,24.56
2023-05-05T13:54:52.886Z,24.77
2023-05-05T13:57:21.630Z,24.99
2023-05-05T13:59:50.698Z,25.32
2023-05-05T14:02:19.353Z,25.32
2023-05-05T14:04:48.008Z,25.72
2023-05-05T14:07:18.195Z,25.98
2023-05-05T14:09:47.028Z,25.80
2023-05-05T14:12:15.638Z,26.20
2023-05-05T14:14:44.378Z,26.54
2023-05-05T14:17:13.395Z,26.42
2023-05-05T14:19:43.370Z,26.27
2023-05-05T14:22:12.400Z,26.12
2023-05-05T14:24:42.580Z,26.13
2023-05-05T14:27:11.303Z,26.11
2023-05-05T14:29:40.213Z,25.82
2023-05-05T14:32:10.866Z,25.66
2023-05-05T14:34:39.807Z,25.54
2023-05-05T14:37:08.985Z,25.56
2023-05-05T14:39:37.698Z,25.76
2023-05-05T14:42:08.176Z,25.48
2023-05-05T14:44:38.925Z,25.35
2023-05-05T14:47:09.115Z,25.07
2023-05-05T14:49:38.213Z,24.95
2023-05-05T14:52:35.179Z,24.72
2023-05-05T14:55:04.444Z,24.70
2023-05-05T14:57:34.613Z,24.58
2023-05-05T15:00:04.893Z,24.62
2023-05-05T15:02:34.039Z,24.92
2023-05-05T15:05:02.971Z,25.29
2023-05-05T15:07:31.756Z,25.78
2023-05-05T15:10:00.520Z,25.91
2023-05-05T15:12:29.315Z,25.89
2023-05-05T15:14:59.385Z,25.44
2023-05-05T15:17:28.752Z,24.87
2023-05-05T15:19:57.535Z,24.56
2023-05-05T15:22:26.575Z,24.54
2023-05-05T15:24:55.501Z,24.61
2023-05-05T15:27:24.288Z,24.65
2023-05-05T15:29:53.130Z,24.63
2023-05-05T15:32:23.681Z,24.51
2023-05-05T15:34:52.536Z,24.46
2023-05-05T15:37:21.339Z,24.46
2023-05-05T15:39:50.238Z,24.43
2023-05-05T15:42:19.075Z,24.25
2023-05-05T15:44:47.845Z,24.21
2023-05-05T15:47:16.626Z,24.03
2023-05-05T15:49:47.330Z,23.91
2023-05-05T15:52:15.995Z,23.84
2023-05-05T15:54:44.860Z,23.78
2023-05-05T15:57:13.524Z,23.72
2023-05-05T15:59:42.454Z,23.57
2023-05-05T16:02:11.813Z,23.58
2023-05-05T16:04:40.633Z,23.58
2023-05-05T16:07:11.390Z,23.62
2023-05-05T16:09:44.563Z,23.52
2023-05-05T16:12:13.814Z,23.38
2023-05-05T16:14:42.782Z,23.40
2023-05-05T16:17:11.803Z,23.32
2023-05-05T16:19:40.714Z,23.16
2023-05-05T16:22:10.944Z,23.16
2023-05-05T16:24:42.492Z,23.08
2023-05-05T16:27:13.795Z,22.97
2023-05-05T16:29:42.866Z,22.98
2023-05-05T16:32:11.859Z,22.89
2023-05-05T16:34:40.997Z,22.98
2023-05-05T16:37:11.322Z,22.94
2023-05-05T16:39:41.582Z,22.87
2023-05-05T16:42:16.688Z,22.93
2023-05-05T16:44:45.352Z,23.01
2023-05-05T16:47:14.205Z,22.95
2023-05-05T16:49:42.859Z,22.86
2023-05-05T16:52:13.028Z,22.77
2023-05-05T16:54:41.676Z,22.78
2023-05-05T16:57:10.461Z,22.77
2023-05-05T16:59:41.857Z,22.70
2023-05-05T17:02:10.736Z,22.60
2023-05-05T17:04:39.437Z,22.59
2023-05-05T17:07:08.124Z,22.53
2023-05-05T17:09:38.320Z,22.52
2023-05-05T17:12:07.858Z,22.51
2023-05-05T17:14:36.455Z,22.51
2023-05-05T17:17:05.159Z,22.46
2023-05-05T17:19:34.041Z,22.39
2023-05-05T17:22:02.771Z,22.33
2023-05-05T17:24:31.697Z,22.21
2023-05-05T17:27:02.132Z,22.13
2023-05-05T17:29:31.311Z,22.10
2023-05-05T17:32:00.917Z,22.03
2023-05-05T17:34:29.938Z,22.04
2023-05-05T17:36:58.624Z,21.97
2023-05-05T17:39:27.735Z,21.85
2023-05-05T17:41:56.444Z,21.84
2023-05-05T17:44:26.695Z,21.78
2023-05-05T17:46:55.560Z,21.74
2023-05-05T17:49:25.485Z,21.71
2023-05-05T17:51:54.430Z,21.60
2023-05-05T17:54:23.214Z,21.54
2023-05-05T17:56:51.891Z,21.50
2023-05-05T17:59:20.582Z,21.42
2023-05-05T18:01:50.722Z,21.23
2023-05-05T18:04:19.589Z,21.20
2023-05-05T18:06:48.377Z,21.04
2023-05-05T18:09:20.783Z,21.08
2023-05-05T18:11:50.037Z,21.06
2023-05-05T18:14:22.541Z,20.98
2023-05-05T18:16:53.473Z,20.74
2023-05-05T18:19:24.699Z,20.78
2023-05-05T18:21:55.534Z,20.55
2023-05-05T18:24:25.996Z,20.67
2023-05-05T18:26:55.584Z,20.69
2023-05-05T18:29:24.644Z,20.68
2023-05-05T18:31:55.238Z,20.67
2023-05-05T18:34:24.306Z,20.56
2023-05-05T18:36:54.494Z,20.57
2023-05-05T18:39:23.326Z,20.54
2023-05-05T18:41:53.070Z,20.49
2023-05-05T18:44:21.674Z,20.47
2023-05-05T18:46:50.349Z,20.25
2023-05-05T18:49:20.632Z,20.02
2023-05-05T18:51:49.479Z,19.87
2023-05-05T18:54:18.194Z,19.87
2023-05-05T18:56:46.974Z,19.90
2023-05-05T18:59:15.723Z,19.77
2023-05-05T19:01:44.837Z,19.77
2023-05-05T19:04:26.666Z,19.71
2023-05-05T19:07:00.342Z,19.76
2023-05-05T19:09:29.271Z,19.71
2023-05-05T19:11:58.052Z,19.64
2023-05-05T19:14:26.842Z,19.67
2023-05-05T19:16:56.263Z,19.57
2023-05-05T19:19:25.083Z,19.46
2023-05-05T19:21:53.826Z,19.26
2023-05-05T19:24:23.920Z,19.19
2023-05-05T19:26:52.566Z,19.20
2023-05-05T19:29:21.305Z,19.37
2023-05-05T19:31:50.025Z,19.43
2023-05-05T19:34:18.794Z,19.48
2023-05-05T19:36:47.515Z,19.46
2023-05-05T19:39:16.894Z,19.45
2023-05-05T19:41:47.096Z,19.46
2023-05-05T19:44:16.493Z,19.45
2023-05-05T19:46:45.217Z,19.34
2023-05-05T19:49:13.856Z,19.17
2023-05-05T19:51:43.838Z,19.21
2023-05-05T19:54:12.528Z,19.18
2023-05-05T19:56:41.204Z,19.20
2023-05-05T19:59:11.323Z,19.19
2023-05-05T20:01:40.244Z,19.16
2023-05-05T20:04:09.109Z,19.13
2023-05-05T20:06:37.923Z,19.08
2023-05-05T20:09:07.044Z,18.98
2023-05-05T20:11:36.337Z,18.97
2023-05-05T20:14:05.049Z,18.88
2023-05-05T20:16:35.784Z,18.88
2023-05-05T20:19:05.406Z,18.75
2023-05-05T20:21:36.078Z,18.57
2023-05-05T20:24:04.978Z,18.54
2023-05-05T20:26:33.779Z,18.54
2023-05-05T20:29:02.553Z,18.47
2023-05-05T20:31:31.357Z,18.43
2023-05-05T20:34:01.615Z,18.20
2023-05-05T20:36:30.342Z,18.08
2023-05-05T20:38:59.030Z,18.20
2023-05-05T20:41:27.710Z,18.25
2023-05-05T20:43:56.442Z,18.28
2023-05-05T20:46:25.149Z,18.23
2023-05-05T20:48:53.846Z,18.27
2023-05-05T20:51:23.999Z,18.28
2023-05-05T20:53:52.698Z,18.27
2023-05-05T20:56:21.391Z,18.29
2023-05-05T20:58:50.231Z,18.25
2023-05-05T21:01:18.979Z,18.17
2023-05-05T21:03:47.758Z,18.13
2023-05-05T21:06:16.427Z,18.08
2023-05-05T21:08:47.267Z,18.07
2023-05-05T21:11:15.927Z,18.01
2023-05-05T21:13:44.655Z,17.92
2023-05-05T21:16:13.526Z,17.86
2023-05-05T21:18:46.646Z,17.91
2023-05-05T21:21:15.461Z,17.98
2023-05-05T21:23:47.968Z,18.00
2023-05-05T21:26:16.925Z,17.70
2023-05-05T21:28:45.596Z,17.73
2023-05-05T21:31:21.836Z,17.82
2023-05-05T21:33:51.223Z,17.90
2023-05-05T21:36:20.995Z,17.84
2023-05-05T21:38:55.354Z,17.89
2023-05-05T21:41:25.398Z,17.78
2023-05-05T21:43:54.158Z,17.85
2023-05-05T21:46:22.889Z,17.89
2023-05-05T21:48:51.947Z,17.92
2023-05-05T21:51:22.654Z,17.91
2023-05-05T21:53:52.809Z,17.91
2023-05-05T21:56:21.450Z,17.81
2023-05-05T21:58:50.154Z,17.72
2023-05-05T22:01:19.038Z,17.63
2023-05-05T22:03:48.395Z,17.52
2023-05-05T22:06:18.482Z,17.59
2023-05-05T22:08:47.761Z,17.39
2023-05-05T22:11:19.469Z,17.36
2023-05-05T22:13:48.282Z,17.24
2023-05-05T22:16:18.402Z,17.19
2023-05-05T22:18:47.346Z,17.29
2023-05-05T22:21:15.987Z,17.22
2023-05-05T22:23:44.669Z,17.06
2023-05-05T22:26:13.784Z,16.93
2023-05-05T22:28:43.905Z,16.94
2023-05-05T22:31:12.794Z,16.85
2023-05-05T22:33:41.481Z,16.75
2023-05-05T22:36:11.612Z,16.76
2023-05-05T22:38:40.336Z,16.70
2023-05-05T22:41:09.033Z,16.74
2023-05-05T22:43:37.794Z,16.82
2023-05-05T22:46:08.011Z,16.80
2023-05-05T22:48:36.989Z,16.89
2023-05-05T22:51:05.811Z,16.84
2023-05-05T22:53:34.536Z,16.88
2023-05-05T22:56:03.248Z,16.81
2023-05-05T22:58:31.908Z,16.73
2023-05-05T23:01:00.592Z,16.62
2023-05-05T23:03:30.719Z,16.58
2023-05-05T23:05:59.330Z,16.57
2023-05-05T23:08:28.091Z,16.56
2023-05-05T23:10:57.261Z,16.40
2023-05-05T23:13:25.970Z,16.24
2023-05-05T23:15:54.720Z,16.21
2023-05-05T23:18:23.385Z,16.11
2023-05-05T23:20:53.379Z,16.17
2023-05-05T23:23:22.107Z,16.21
2023-05-05T23:25:51.411Z,16.23
2023-05-05T23:28:21.076Z,16.26
2023-05-05T23:30:49.879Z,16.23
2023-05-05T23:33:18.572Z,16.20
2023-05-05T23:35:47.957Z,16.19
2023-05-05T23:38:18.060Z,16.20
2023-05-05T23:40:46.726Z,16.17
2023-05-05T23:43:15.537Z,16.16
2023-05-05T23:45:44.226Z,16.14
2023-05-05T23:48:13.776Z,16.15
2023-05-05T23:50:42.416Z,16.13
2023-05-05T23:53:11.347Z,16.12
2023-05-05T23:55:41.503Z,16.08
2023-05-05T23:58:10.135Z,16.06
